createdAt,value
2023-02-18T07:16:45.842Z,100295.34
2023-02-18T07:19:56.004Z,100295.25
2023-02-18T07:23:01.615Z,100282.06
2023-02-18T07:34:58.025Z,100282.00
2023-02-18T07:38:04.808Z,100286.13
2023-02-18T07:41:08.962Z,100276.53
2023-02-18T07:44:11.993Z,100282.31
2023-02-18T07:47:17.366Z,100275.91
2023-02-18T07:50:22.108Z,100274.28
2023-02-18T07:53:31.919Z,100268.13
2023-02-18T07:56:34.802Z,100273.50
2023-02-18T07:59:40.866Z,100285.53
2023-02-18T08:06:57.417Z,100260.38
2023-02-18T08:10:00.278Z,100254.75
2023-02-18T08:13:03.104Z,100257.03
2023-02-18T08:16:10.577Z,100259.28
2023-02-18T08:19:16.067Z,100240.97
2023-02-18T08:22:20.270Z,100251.97
2023-02-18T08:25:29.818Z,100246.06
2023-02-18T08:28:32.946Z,100246.53
2023-02-18T08:31:51.330Z,100242.91
2023-02-18T08:34:55.504Z,100244.91
2023-02-18T08:38:05.561Z,100237.53
2023-02-18T08:41:12.441Z,100244.56
2023-02-18T08:44:15.445Z,100227.63
2023-02-18T08:48:18.499Z,100229.72
2023-02-18T08:50:43.781Z,100223.66
2023-02-18T08:53:48.300Z,100224.84
2023-02-18T08:56:53.132Z,100222.97
2023-02-18T08:59:55.648Z,100221.97
2023-02-18T09:02:58.297Z,100214.88
2023-02-18T09:06:01.530Z,100208.75
2023-02-18T09:09:06.298Z,100211.34
2023-02-18T09:12:12.057Z,100212.00
2023-02-18T09:15:14.586Z,100205.50
2023-02-18T09:18:17.167Z,100204.63
2023-02-18T09:21:21.099Z,100199.44
2023-02-18T09:24:30.313Z,100188.34
2023-02-18T09:27:40.744Z,100192.88
2023-02-18T09:30:52.480Z,100188.16
2023-02-18T09:34:03.417Z,100181.38
2023-02-18T09:37:19.689Z,100163.13
2023-02-18T09:40:38.360Z,100161.66
2023-02-18T09:43:46.143Z,100146.75
2023-02-18T09:46:53.435Z,100148.03
2023-02-18T09:50:04.902Z,100126.28
2023-02-18T09:53:13.132Z,100116.63
2023-02-18T09:56:22.302Z,100115.81
2023-02-18T09:59:30.681Z,100120.34
2023-02-18T10:02:39.364Z,100119.19
2023-02-18T10:09:09.964Z,100105.31
2023-02-18T10:21:04.873Z,100080.44
2023-02-18T10:24:19.645Z,100078.78
2023-02-18T10:43:10.361Z,100009.66
2023-02-18T11:41:17.994Z,99883.75
